aviador You're here:

TBPB Decoded Metar

BRIDGETOWN in BARBADOS
Report Time2017-08-24 03:00:00
UTC Time2017-08-24 03:11:20
Flight Rules vfr VFR
Wind080° at 11 kt
W.Decomp.*RWY 09: 11.0 kt HW 1.0 kt RCW
W.Rank080° ranks 1
Current wind is below 080° avg. (13.8)
Visibility9999 m
Phenomena:N/A
Clouds:Scattered 020 Hf
Expected CloudBase > 1,200 ft AGL from Temp-Dew spread
CeilingNone
Temp28°C (ISA +13)
Dew Point25°C (84% RH)
Heat Index32.7°C
QNH1013 hPa
Density Alt2,123 ft
Elevation171 ft
Report Wrong Elevation
Raw Report
TBPB 240300Z 08011KT 9999 SCT020 28/25 Q1013 NOSIG=

Extra information for TBPB:More info

Metar Taf Metar & Taf Last 4 Metars F.Rules Stats Wind Profile Meteogram Temp Stats Airport Information Weather charts Add Link Nearby VenuesMetar ALERT Operation Metar Decoded Social comments